Time;durP1;ratioP1;P1;durP2;ratioP2;P2;SDS_P1;SDS_P2;PMS_P1;PMS_P2;Temp;Humidity;BMP_temperature;BMP_pressure;BME280_temperature;BME280_humidity;BME280_pressure;Samples;Min_cycle;Max_cycle;Signal;HPM_P1;HPM_P2
2023/08/06 00:00:13;;;;;;;4.47;3.97;;;;;;;18.00;100.00;95224.91;5000952;28;20219;-88
2023/08/06 00:02:40;;;;;;;3.85;3.45;;;;;;;17.93;100.00;95225.81;5003850;28;20210;-89
2023/08/06 00:05:07;;;;;;;3.80;3.50;;;;;;;17.91;100.00;95227.06;5009966;28;20238;-88
2023/08/06 00:07:33;;;;;;;5.15;3.50;;;;;;;17.90;100.00;95222.88;5009696;28;20206;-88
2023/08/06 00:10:00;;;;;;;3.88;3.58;;;;;;;17.89;100.00;95231.75;5009505;28;20218;-87
2023/08/06 00:12:26;;;;;;;3.83;3.33;;;;;;;17.88;100.00;95230.94;5014998;28;20228;-87
2023/08/06 00:14:53;;;;;;;5.07;3.63;;;;;;;17.83;100.00;95222.22;5028676;28;20201;-88
2023/08/06 00:17:32;;;;;;;3.70;3.40;;;;;;;17.81;100.00;95222.47;5023744;28;21137;-87
2023/08/06 00:20:04;;;;;;;3.70;3.40;;;;;;;17.73;100.00;95209.00;5008913;28;20218;-87
2023/08/06 00:22:30;;;;;;;4.30;3.30;;;;;;;17.64;100.00;95212.97;5009225;28;20221;-89
2023/08/06 00:24:57;;;;;;;3.60;3.30;;;;;;;17.50;99.62;95202.81;5009179;28;20218;-88
2023/08/06 00:27:23;;;;;;;3.88;3.25;;;;;;;17.47;98.50;95187.63;5008837;28;20230;-87
2023/08/06 00:29:50;;;;;;;3.35;3.00;;;;;;;17.46;98.84;95190.47;5009090;28;20901;-89
2023/08/06 00:32:17;;;;;;;3.42;3.13;;;;;;;17.45;99.29;95199.28;5008742;28;20191;-89
2023/08/06 00:34:49;;;;;;;2.92;2.72;;;;;;;17.44;98.24;95182.88;5007463;28;20195;-87
2023/08/06 00:37:19;;;;;;;3.42;3.13;;;;;;;17.34;98.47;95176.66;5009270;28;20214;-87
2023/08/06 00:39:45;;;;;;;4.25;3.00;;;;;;;17.41;98.40;95179.94;5014492;28;20244;-89
2023/08/06 00:42:12;;;;;;;2.97;2.78;;;;;;;17.36;99.49;95187.63;5008859;28;20195;-87
2023/08/06 00:44:39;;;;;;;3.08;2.70;;;;;;;17.30;100.00;95189.34;5009154;28;20226;-87
2023/08/06 00:47:08;;;;;;;2.90;2.70;;;;;;;17.35;99.29;95193.84;5008733;28;20214;-88
2023/08/06 00:49:36;;;;;;;3.45;3.15;;;;;;;17.37;98.77;95186.63;5007726;28;20222;-88
2023/08/06 00:52:05;;;;;;;3.30;3.00;;;;;;;17.36;98.83;95182.44;5008418;28;20206;-88
2023/08/06 00:54:32;;;;;;;3.33;2.95;;;;;;;17.36;98.51;95175.41;5008323;28;20203;-89
2023/08/06 00:57:08;;;;;;;3.00;2.80;;;;;;;17.36;97.51;95154.59;5007415;28;20199;-88
2023/08/06 00:59:35;;;;;;;3.25;2.95;;;;;;;17.31;97.32;95157.13;5008539;28;20218;-88
2023/08/06 01:02:01;;;;;;;3.35;3.05;;;;;;;17.31;97.38;95149.31;5008268;28;20279;-87
2023/08/06 01:04:28;;;;;;;3.45;2.80;;;;;;;17.25;97.01;95132.78;5008213;28;20222;-88
2023/08/06 01:07:04;;;;;;;3.33;2.92;;;;;;;17.19;96.69;95138.09;5007423;28;20211;-89
2023/08/06 01:09:43;;;;;;;4.55;2.55;;;;;;;17.21;96.22;95130.88;5008142;28;20230;-89
2023/08/06 01:12:20;;;;;;;2.85;2.65;;;;;;;17.19;95.84;95125.09;5010043;28;20199;-87
2023/08/06 01:14:58;;;;;;;2.67;2.47;;;;;;;17.15;95.50;95123.97;5007903;28;20203;-87
2023/08/06 01:17:31;;;;;;;3.30;2.50;;;;;;;17.18;95.93;95126.91;5005527;28;20199;-88
2023/08/06 01:19:57;;;;;;;3.08;2.70;;;;;;;17.21;95.99;95129.06;5008739;28;20739;-88
2023/08/06 01:22:25;;;;;;;2.95;2.70;;;;;;;17.20;97.15;95130.06;5006831;28;20222;-88
2023/08/06 01:24:52;;;;;;;3.25;3.05;;;;;;;17.21;97.01;95125.66;5007962;28;20230;-88
2023/08/06 01:27:29;;;;;;;3.30;3.03;;;;;;;17.18;98.29;95141.72;5008277;28;20203;-87
2023/08/06 01:30:01;;;;;;;3.70;3.40;;;;;;;17.11;98.14;95141.06;5009956;28;20782;-87
2023/08/06 01:32:32;;;;;;;3.80;3.50;;;;;;;17.09;98.73;95148.31;5011852;28;20205;-88
2023/08/06 01:35:01;;;;;;;4.25;3.42;;;;;;;17.06;99.28;95148.75;5012138;28;20202;-89
2023/08/06 01:37:29;;;;;;;4.20;3.55;;;;;;;17.15;99.60;95149.97;5011717;28;20245;-88
2023/08/06 01:39:55;;;;;;;4.07;3.72;;;;;;;17.14;99.68;95148.41;5010611;28;20606;-87
2023/08/06 01:42:22;;;;;;;3.80;3.38;;;;;;;17.12;98.32;95137.44;5011405;28;20213;-88
2023/08/06 01:44:57;;;;;;;5.32;3.80;;;;;;;17.12;98.87;95148.66;5011691;28;20233;-87
2023/08/06 01:47:24;;;;;;;4.00;3.35;;;;;;;17.16;99.42;95149.75;5011396;28;20256;-88
2023/08/06 01:49:53;;;;;;;3.47;3.17;;;;;;;17.16;100.00;95152.34;5011596;28;20302;-88
2023/08/06 01:52:19;;;;;;;3.72;3.42;;;;;;;17.00;99.59;95147.06;5003539;28;20627;-87
2023/08/06 01:54:47;;;;;;;3.80;3.40;;;;;;;16.92;99.54;95143.78;5000457;28;20202;-87
2023/08/06 01:57:14;;;;;;;3.20;3.00;;;;;;;16.93;99.93;95147.94;5012234;28;20210;-88
2023/08/06 01:59:40;;;;;;;4.15;3.22;;;;;;;16.99;99.59;95143.66;5011920;28;20846;-88
2023/08/06 02:02:07;;;;;;;3.78;3.33;;;;;;;17.02;99.14;95132.81;5011462;28;20206;-88
2023/08/06 02:04:33;;;;;;;3.42;2.97;;;;;;;16.95;98.73;95128.72;5007261;28;20843;-87
2023/08/06 02:06:59;;;;;;;3.88;2.90;;;;;;;16.99;98.59;95127.25;4992294;28;20199;-89
2023/08/06 02:09:26;;;;;;;4.97;3.10;;;;;;;16.91;98.23;95110.22;4999461;28;20222;-89
2023/08/06 02:11:54;;;;;;;3.22;2.92;;;;;;;16.94;98.46;95120.13;5011204;28;20207;-89
2023/08/06 02:14:22;;;;;;;3.47;3.17;;;;;;;16.96;98.31;95112.09;4991548;28;20215;-89
2023/08/06 02:16:49;;;;;;;3.38;3.08;;;;;;;16.90;97.61;95103.44;4991631;28;20703;-87
2023/08/06 02:19:15;;;;;;;2.67;2.47;;;;;;;16.81;97.80;95102.16;5007776;28;20321;-88
2023/08/06 02:21:42;;;;;;;3.53;2.75;;;;;;;16.79;97.91;95097.19;5010953;28;20214;-87
2023/08/06 02:24:08;;;;;;;2.75;2.55;;;;;;;16.80;97.49;95090.19;5011143;28;20206;-87
2023/08/06 02:26:35;;;;;;;2.67;2.47;;;;;;;16.75;97.10;95079.66;5009697;28;20223;-88
2023/08/06 02:29:02;;;;;;;2.88;2.53;;;;;;;16.70;97.14;95082.19;5011342;28;20602;-87
2023/08/06 02:31:31;;;;;;;2.20;2.10;;;;;;;16.76;97.02;95078.66;5010834;28;20692;-87
2023/08/06 02:33:58;;;;;;;2.72;2.53;;;;;;;16.74;96.79;95068.47;5011406;28;20229;-87
2023/08/06 02:36:29;;;;;;;2.95;2.50;;;;;;;16.77;97.13;95064.63;5010749;28;20229;-89
2023/08/06 02:38:55;;;;;;;2.47;2.28;;;;;;;16.79;97.40;95054.81;5010753;28;20818;-87
2023/08/06 02:41:21;;;;;;;3.33;2.17;;;;;;;16.78;97.65;95056.63;5010438;28;20210;-87
2023/08/06 02:43:48;;;;;;;2.58;2.38;;;;;;;16.76;96.77;95045.66;5009803;28;20210;-88
2023/08/06 02:46:16;;;;;;;2.45;2.25;;;;;;;16.84;96.06;95041.91;5010385;28;20226;-89
2023/08/06 02:48:46;;;;;;;2.33;2.13;;;;;;;16.73;96.33;95025.31;5007399;28;20245;-88
2023/08/06 02:51:12;;;;;;;2.60;2.40;;;;;;;16.69;96.33;95016.41;5005087;28;20665;-88
2023/08/06 02:53:38;;;;;;;2.25;2.15;;;;;;;16.64;97.00;95033.69;5010281;28;20206;-89
2023/08/06 02:56:05;;;;;;;2.42;2.22;;;;;;;16.66;96.75;95031.66;5010266;28;20195;-88
2023/08/06 02:58:36;;;;;;;2.53;2.33;;;;;;;16.73;96.90;95032.34;5009328;28;20253;-89
2023/08/06 03:01:07;;;;;;;2.30;2.10;;;;;;;16.68;96.47;95024.44;5010017;28;20218;-88
2023/08/06 03:03:38;;;;;;;2.30;2.10;;;;;;;16.66;96.63;95032.44;5010361;28;20199;-88
2023/08/06 03:06:07;;;;;;;3.47;2.10;;;;;;;16.47;96.65;95025.75;4994410;28;20219;-88
2023/08/06 03:08:33;;;;;;;3.00;2.08;;;;;;;16.52;97.22;95036.28;4991258;28;20227;-88
2023/08/06 03:11:00;;;;;;;2.17;2.00;;;;;;;16.51;97.17;95055.47;5009880;28;20615;-88
2023/08/06 03:13:28;;;;;;;3.28;2.20;;;;;;;16.50;97.35;95059.88;5024474;28;20205;-89
2023/08/06 03:15:56;;;;;;;3.00;2.40;;;;;;;16.40;97.88;95067.44;5014978;28;20230;-88
2023/08/06 03:18:23;;;;;;;3.55;1.98;;;;;;;16.40;97.82;95064.03;5010439;28;20230;-88
2023/08/06 03:20:51;;;;;;;3.97;2.35;;;;;;;16.44;97.22;95060.78;5010510;28;20199;-88
2023/08/06 03:23:18;;;;;;;2.90;2.30;;;;;;;16.30;97.68;95058.63;5011109;28;20203;-87
2023/08/06 03:25:45;;;;;;;2.30;2.10;;;;;;;16.33;98.01;95069.38;5011121;28;20226;-88
2023/08/06 03:28:11;;;;;;;3.25;1.92;;;;;;;16.37;97.69;95056.69;5011159;28;20207;-87
2023/08/06 03:30:38;;;;;;;3.22;2.20;;;;;;;16.44;97.16;95049.59;5008603;28;20203;-87
2023/08/06 03:33:04;;;;;;;2.08;1.80;;;;;;;16.49;96.71;95049.72;5009519;28;20290;-87
2023/08/06 03:35:31;;;;;;;2.83;1.92;;;;;;;16.50;96.44;95041.69;5009764;28;20209;-87
2023/08/06 03:37:59;;;;;;;1.95;1.85;;;;;;;16.48;96.38;95032.53;5009545;28;20195;-87
2023/08/06 03:40:25;;;;;;;2.08;1.90;;;;;;;16.51;96.56;95043.28;5010034;28;20215;-87
2023/08/06 03:42:52;;;;;;;2.20;2.10;;;;;;;16.55;96.37;95038.41;5009805;28;20199;-87
2023/08/06 03:45:21;;;;;;;2.13;1.92;;;;;;;16.56;96.58;95032.19;5002837;28;20979;-87
2023/08/06 03:47:47;;;;;;;2.40;2.20;;;;;;;16.54;95.80;95018.66;5007196;28;20214;-87
2023/08/06 03:50:14;;;;;;;2.20;2.00;;;;;;;16.51;95.33;95017.28;5010083;28;20629;-87
2023/08/06 03:52:40;;;;;;;2.65;1.90;;;;;;;16.46;95.09;95011.19;5008999;28;20203;-87
2023/08/06 03:55:08;;;;;;;2.45;2.10;;;;;;;16.42;95.33;95004.84;5009583;28;20191;-88
2023/08/06 03:57:35;;;;;;;4.38;2.15;;;;;;;16.40;95.22;95004.28;5009499;28;20238;-87
2023/08/06 04:00:02;;;;;;;2.33;2.10;;;;;;;16.42;95.19;95003.03;5009664;28;20227;-87
2023/08/06 04:02:28;;;;;;;2.20;2.00;;;;;;;16.41;95.25;95008.47;5009785;28;20285;-88
2023/08/06 04:04:55;;;;;;;2.03;1.92;;;;;;;16.38;95.36;95006.31;5008517;28;20207;-89
2023/08/06 04:07:21;;;;;;;3.47;1.98;;;;;;;16.42;95.23;95002.25;5009855;28;20202;-88
2023/08/06 04:09:56;;;;;;;3.75;2.08;;;;;;;16.41;94.83;94998.88;5009991;28;20230;-87
2023/08/06 04:12:23;;;;;;;3.53;1.90;;;;;;;16.41;94.60;94998.06;5019483;28;20197;-88
2023/08/06 04:14:51;;;;;;;2.97;2.00;;;;;;;16.36;95.21;94998.75;5012578;28;20206;-88
2023/08/06 04:17:20;;;;;;;2.10;1.90;;;;;;;16.32;95.69;95009.84;5010041;28;20202;-88
2023/08/06 04:19:46;;;;;;;2.33;1.80;;;;;;;16.38;95.42;95014.09;5008885;28;20223;-88
2023/08/06 04:22:13;;;;;;;2.10;1.63;;;;;;;16.38;94.92;95003.72;5009680;28;20207;-87
2023/08/06 04:24:39;;;;;;;2.47;2.00;;;;;;;16.35;95.56;95017.97;5009609;28;20569;-88
2023/08/06 04:27:07;;;;;;;2.15;1.90;;;;;;;16.26;94.31;94995.16;5009269;28;20215;-88
2023/08/06 04:29:35;;;;;;;2.15;1.90;;;;;;;16.19;94.98;95011.63;5009291;28;20898;-87
2023/08/06 04:32:01;;;;;;;2.00;1.90;;;;;;;16.22;95.28;95020.78;5009309;28;20209;-87
2023/08/06 04:34:28;;;;;;;2.45;1.83;;;;;;;16.27;95.04;95012.31;5009269;28;20210;-87
2023/08/06 04:36:54;;;;;;;3.40;1.98;;;;;;;16.29;95.28;95015.47;5007810;28;20432;-87
2023/08/06 04:39:21;;;;;;;1.75;1.65;;;;;;;16.27;94.19;95000.13;5009038;28;20245;-88
2023/08/06 04:41:47;;;;;;;2.97;1.92;;;;;;;16.34;94.98;95018.19;5005570;28;20210;-89
2023/08/06 04:44:13;;;;;;;1.77;1.67;;;;;;;16.33;94.45;95017.41;5009018;28;20203;-89
2023/08/06 04:46:41;;;;;;;4.22;1.50;;;;;;;16.32;94.17;95007.25;5008845;28;20222;-87
2023/08/06 04:49:08;;;;;;;3.22;2.08;;;;;;;16.38;94.06;95004.50;5009089;28;20589;-86
2023/08/06 04:51:34;;;;;;;1.90;1.80;;;;;;;16.40;94.05;95018.06;5007604;28;20593;-87
2023/08/06 04:54:01;;;;;;;3.88;2.00;;;;;;;16.38;93.25;94999.31;5008687;28;20952;-87
2023/08/06 04:56:27;;;;;;;1.77;1.67;;;;;;;16.41;94.15;94995.47;5009393;28;20210;-88
2023/08/06 04:58:53;;;;;;;1.90;1.80;;;;;;;16.39;94.13;95003.50;5008835;28;20229;-88
2023/08/06 05:01:20;;;;;;;3.42;1.80;;;;;;;16.42;93.93;94994.47;5009248;28;20199;-88
2023/08/06 05:03:48;;;;;;;2.00;1.85;;;;;;;16.49;94.02;95001.13;5008956;28;20206;-87
2023/08/06 05:06:15;;;;;;;2.20;1.75;;;;;;;16.54;93.82;94996.06;4994519;28;20223;-87
2023/08/06 05:08:41;;;;;;;2.67;1.73;;;;;;;16.53;93.45;94986.69;5002067;28;20227;-87
2023/08/06 05:11:08;;;;;;;2.05;1.75;;;;;;;16.55;94.22;94996.81;5012625;28;20214;-87
2023/08/06 05:13:34;;;;;;;2.17;1.70;;;;;;;16.58;93.70;94988.56;5025393;28;20202;-88
2023/08/06 05:16:00;;;;;;;2.15;1.80;;;;;;;16.61;93.72;94992.53;5012727;28;20202;-88
2023/08/06 05:18:27;;;;;;;2.40;1.73;;;;;;;16.65;93.52;94985.88;5012507;28;20241;-87
2023/08/06 05:20:59;;;;;;;3.20;1.80;;;;;;;16.62;93.05;94973.31;5012286;28;20213;-88
2023/08/06 05:23:25;;;;;;;2.38;1.70;;;;;;;16.57;92.10;94958.41;5012012;28;20203;-87
2023/08/06 05:25:52;;;;;;;2.00;1.90;;;;;;;16.57;92.32;94966.19;5000940;28;20245;-88
2023/08/06 05:28:18;;;;;;;1.90;1.80;;;;;;;16.57;92.87;94979.19;4996584;28;20203;-87
2023/08/06 05:30:45;;;;;;;2.08;1.88;;;;;;;16.53;92.35;94970.28;5024840;28;20199;-87
2023/08/06 05:33:11;;;;;;;2.28;1.88;;;;;;;16.51;92.00;94972.31;5014794;28;20234;-87
2023/08/06 05:35:37;;;;;;;2.00;1.80;;;;;;;16.46;92.49;94982.59;5012156;28;20203;-87
2023/08/06 05:38:11;;;;;;;2.58;1.65;;;;;;;16.48;92.36;94975.38;5004286;28;20195;-88
2023/08/06 05:40:38;;;;;;;1.65;1.55;;;;;;;16.50;91.75;94981.94;5011195;28;20206;-87
2023/08/06 05:43:04;;;;;;;2.28;2.00;;;;;;;16.42;91.99;94977.06;5008268;28;20206;-86
2023/08/06 05:45:30;;;;;;;1.77;1.67;;;;;;;16.49;91.90;94980.34;5012107;28;20199;-87
2023/08/06 05:47:58;;;;;;;2.85;1.95;;;;;;;16.45;91.41;94973.22;5011011;28;20574;-88
2023/08/06 05:50:25;;;;;;;2.10;1.95;;;;;;;16.48;91.11;94968.38;5012303;28;20315;-87
2023/08/06 05:52:57;;;;;;;2.15;1.95;;;;;;;16.54;92.07;94980.47;5011799;28;20700;-87
2023/08/06 05:55:25;;;;;;;1.98;1.80;;;;;;;16.55;90.99;94958.63;5011337;28;20218;-87
2023/08/06 05:57:52;;;;;;;3.78;1.80;;;;;;;16.67;90.76;94950.06;5004717;28;20204;-87
2023/08/06 06:00:19;;;;;;;5.15;1.77;;;;;;;16.78;90.41;94952.63;5003387;28;20214;-87
2023/08/06 06:02:46;;;;;;;2.58;1.65;;;;;;;16.82;89.82;94935.53;5001547;28;20200;-89
2023/08/06 06:05:13;;;;;;;1.70;1.55;;;;;;;16.75;88.03;94911.47;5001953;28;20207;-89
2023/08/06 06:07:39;;;;;;;2.05;1.50;;;;;;;16.82;89.08;94924.34;5001648;28;20211;-88
2023/08/06 06:10:07;;;;;;;1.83;1.50;;;;;;;16.79;87.83;94904.81;5000515;28;20219;-89
2023/08/06 06:12:35;;;;;;;1.60;1.50;;;;;;;16.93;87.82;94915.75;5002192;28;20203;-87
2023/08/06 06:15:01;;;;;;;1.70;1.60;;;;;;;16.96;87.28;94899.66;5004310;28;20600;-88
2023/08/06 06:17:28;;;;;;;2.42;2.10;;;;;;;16.99;86.68;94894.00;5000686;28;20196;-87
2023/08/06 06:19:54;;;;;;;2.08;1.60;;;;;;;16.93;85.74;94874.91;5003382;28;20215;-88
2023/08/06 06:22:24;;;;;;;1.60;1.50;;;;;;;16.95;84.86;94861.66;4998855;28;20203;-88
2023/08/06 06:24:50;;;;;;;1.60;1.50;;;;;;;16.98;85.73;94868.22;4997373;28;20879;-88
2023/08/06 06:27:16;;;;;;;1.88;1.60;;;;;;;17.06;85.78;94875.66;4996916;28;20223;-88
2023/08/06 06:29:44;;;;;;;1.60;1.50;;;;;;;17.08;84.32;94855.41;5002444;28;20224;-87
2023/08/06 06:32:11;;;;;;;1.67;1.58;;;;;;;17.19;85.22;94872.75;5003748;28;20221;-87
2023/08/06 06:34:37;;;;;;;1.70;1.60;;;;;;;17.25;85.79;94875.19;5000329;28;20199;-89
2023/08/06 06:37:04;;;;;;;2.72;1.60;;;;;;;17.32;84.89;94858.66;4999871;28;20195;-88
2023/08/06 06:39:33;;;;;;;2.33;1.50;;;;;;;17.38;84.32;94847.28;5000845;28;20234;-88
2023/08/06 06:41:59;;;;;;;2.45;1.65;;;;;;;17.37;84.07;94838.69;5000612;28;20705;-87
2023/08/06 06:44:26;;;;;;;1.75;1.38;;;;;;;17.34;83.20;94830.56;4999015;28;20207;-87
2023/08/06 06:46:54;;;;;;;1.42;1.33;;;;;;;17.32;82.72;94819.63;5005717;28;20222;-87
2023/08/06 06:49:20;;;;;;;1.70;1.58;;;;;;;17.23;81.77;94795.81;5004023;28;20218;-87
2023/08/06 06:51:47;;;;;;;1.65;1.52;;;;;;;17.29;81.95;94799.28;5009919;28;20203;-88
2023/08/06 06:54:13;;;;;;;2.10;1.50;;;;;;;17.31;80.83;94779.81;5009721;28;20618;-87
2023/08/06 06:56:42;;;;;;;1.70;1.55;;;;;;;17.44;81.44;94795.09;5009708;28;20203;-87
2023/08/06 06:59:09;;;;;;;1.55;1.42;;;;;;;17.54;82.01;94820.47;5010006;28;20273;-87
2023/08/06 07:01:35;;;;;;;1.50;1.23;;;;;;;17.51;79.94;94789.72;5009028;28;20290;-88
2023/08/06 07:04:04;;;;;;;1.65;1.48;;;;;;;17.59;79.34;94753.66;5010783;28;20207;-91
2023/08/06 07:06:35;;;;;;;2.30;1.17;;;;;;;17.87;78.14;94747.53;5001147;28;20305;-92
2023/08/06 07:09:08;;;;;;;3.20;1.30;;;;;;;17.99;77.14;94726.56;5010560;28;20222;-91
2023/08/06 07:11:43;;;;;;;1.42;1.20;;;;;;;17.89;75.02;94664.75;5005150;28;20215;-91
2023/08/06 07:14:10;;;;;;;1.58;1.20;;;;;;;18.01;75.58;94679.44;5013778;28;20206;-91
2023/08/06 07:16:46;;;;;;;1.48;1.08;;;;;;;18.14;75.12;94672.03;5009723;28;20255;-92
2023/08/06 07:19:23;;;;;;;2.05;1.55;;;;;;;18.29;75.50;94687.81;5003443;28;20224;-92
2023/08/06 07:21:50;;;;;;;2.17;1.13;;;;;;;18.35;73.87;94646.94;5012146;28;20201;-88
2023/08/06 07:24:16;;;;;;;1.15;0.85;;;;;;;17.94;73.39;94632.75;5010569;28;20238;-87
2023/08/06 07:26:44;;;;;;;1.38;0.90;;;;;;;17.61;75.76;94693.53;5009774;28;20215;-89
2023/08/06 07:29:10;;;;;;;1.13;1.02;;;;;;;17.28;78.49;94751.66;5006993;28;20634;-89
2023/08/06 07:31:37;;;;;;;2.15;1.05;;;;;;;17.27;82.00;94820.34;5003696;28;20202;-88
2023/08/06 07:34:09;;;;;;;3.08;1.08;;;;;;;17.29;82.00;94814.91;5002188;28;20210;-88
2023/08/06 07:36:37;;;;;;;1.17;1.08;;;;;;;17.24;82.19;94823.41;5003430;28;20202;-88
2023/08/06 07:39:06;;;;;;;1.05;1.00;;;;;;;17.21;82.43;94824.66;5002313;28;20591;-88
2023/08/06 07:41:32;;;;;;;1.02;1.00;;;;;;;17.25;83.38;94843.19;4999929;28;20728;-88
2023/08/06 07:43:58;;;;;;;0.98;0.88;;;;;;;17.14;82.73;94834.41;4998315;28;20201;-89
2023/08/06 07:46:25;;;;;;;0.80;0.80;;;;;;;17.11;81.22;94797.72;4999073;28;20703;-88
2023/08/06 07:48:51;;;;;;;1.75;1.00;;;;;;;17.16;80.83;94790.75;4999438;28;20225;-89
2023/08/06 07:51:18;;;;;;;1.58;1.00;;;;;;;17.10;80.81;94786.50;5004982;28;20202;-88
2023/08/06 07:53:46;;;;;;;1.35;0.98;;;;;;;17.09;80.72;94773.75;4998980;28;20199;-88
2023/08/06 07:56:12;;;;;;;1.10;0.90;;;;;;;17.19;80.62;94776.50;5001269;28;20195;-88
2023/08/06 07:58:38;;;;;;;1.05;0.93;;;;;;;17.39;79.64;94755.19;4999578;28;20215;-91
2023/08/06 08:01:13;;;;;;;0.80;0.70;;;;;;;17.68;77.45;94707.22;4999767;28;20199;-89
2023/08/06 08:03:39;;;;;;;1.17;1.00;;;;;;;17.77;76.45;94699.75;5000451;28;20197;-88
2023/08/06 08:06:09;;;;;;;1.20;1.10;;;;;;;17.93;74.75;94646.81;5002082;28;20307;-89
2023/08/06 08:08:38;;;;;;;1.73;0.95;;;;;;;18.09;75.66;94676.41;5001728;28;20269;-88
2023/08/06 08:11:06;;;;;;;1.35;1.00;;;;;;;18.23;73.65;94641.13;4999608;28;20198;-89
2023/08/06 08:14:13;;;;;;;1.25;1.00;;;;;;;18.20;73.38;94587.69;5002076;28;20218;-89
2023/08/06 08:16:42;;;;;;;1.30;0.85;;;;;;;18.20;70.33;94540.78;4939910;28;20212;-89
2023/08/06 08:19:09;;;;;;;2.00;0.82;;;;;;;18.15;67.96;94444.34;4989207;28;20783;-89
2023/08/06 08:21:39;;;;;;;1.35;0.88;;;;;;;18.44;67.12;94410.13;5002103;28;20207;-89
2023/08/06 08:25:20;;;;;;;1.23;0.90;;;;;;;18.63;69.07;94479.06;4999320;28;20258;-88
2023/08/06 08:31:40;;;;;;;0.70;0.70;;;;;;;18.43;68.37;94442.44;4848797;29;22162;-88
2023/08/06 08:34:44;;;;;;;0.88;0.70;;;;;;;18.38;67.28;94416.31;4887138;28;20198;-88
2023/08/06 08:44:00;;;;;;;0.85;0.85;;;;;;;17.95;67.89;94439.78;4932001;29;20208;-88
2023/08/06 08:52:30;;;;;;;0.50;0.50;;;;;;;17.81;67.64;94433.44;4936966;28;20200;-89
2023/08/06 08:55:20;;;;;;;0.50;0.50;;;;;;;17.71;67.12;94416.94;5001350;28;20202;-89
2023/08/06 08:58:00;;;;;;;0.98;0.60;;;;;;;17.74;66.83;94412.03;5010414;28;20209;-90
2023/08/06 09:00:35;;;;;;;0.98;0.55;;;;;;;17.79;67.74;94432.13;5013526;28;20229;-89
2023/08/06 09:03:17;;;;;;;0.65;0.40;;;;;;;17.84;66.33;94398.31;5015685;28;20288;-90
2023/08/06 09:05:49;;;;;;;0.60;0.60;;;;;;;17.90;67.12;94431.13;5005925;28;20290;-90
2023/08/06 09:08:23;;;;;;;0.47;0.40;;;;;;;18.04;65.99;94382.03;5012664;28;20249;-90
2023/08/06 09:11:00;;;;;;;;;;;;;;;;;;;;;
2023/08/06 09:13:27;;;;;;;0.85;0.50;;;;;;;17.83;66.89;94427.97;5027799;28;20210;-90
2023/08/06 09:16:01;;;;;;;1.05;0.50;;;;;;;17.85;67.64;94446.75;5033303;28;20289;-89
2023/08/06 09:18:28;;;;;;;0.40;0.40;;;;;;;17.61;67.66;94456.66;5023027;28;20779;-89
2023/08/06 09:21:04;;;;;;;2.78;0.70;;;;;;;17.65;68.12;94483.81;5014741;28;20304;-90
2023/08/06 09:23:33;;;;;;;1.40;0.82;;;;;;;17.61;68.33;94462.66;5012790;28;20191;-89
2023/08/06 09:26:11;;;;;;;0.40;0.40;;;;;;;17.52;67.63;94455.53;5009971;28;20203;-90
2023/08/06 09:28:49;;;;;;;0.50;0.50;;;;;;;17.45;67.25;94423.75;5013254;28;20230;-90
2023/08/06 09:31:39;;;;;;;0.75;0.50;;;;;;;17.54;67.29;94443.06;5014847;28;20318;-92
2023/08/06 09:34:23;;;;;;;0.98;0.47;;;;;;;17.52;67.86;94453.72;5021189;28;20206;-90
2023/08/06 09:37:07;;;;;;;0.65;0.60;;;;;;;17.48;67.64;94457.09;5015902;28;20203;-89
2023/08/06 09:39:33;;;;;;;0.40;0.40;;;;;;;17.47;67.58;94461.50;5013422;28;20237;-91
2023/08/06 09:42:19;;;;;;;0.45;0.45;;;;;;;17.47;67.31;94451.09;5012412;28;20754;-90
2023/08/06 09:44:56;;;;;;;0.60;0.40;;;;;;;17.49;67.12;94441.22;5005220;28;20626;-89
2023/08/06 09:47:29;;;;;;;0.88;0.68;;;;;;;17.41;67.93;94462.47;5012806;28;20215;-89
2023/08/06 09:49:58;;;;;;;0.80;0.50;;;;;;;17.42;67.76;94468.47;5012464;28;20211;-90
2023/08/06 09:52:26;;;;;;;1.25;0.50;;;;;;;17.43;67.40;94467.44;5013077;28;20206;-90
2023/08/06 09:55:21;;;;;;;1.73;0.43;;;;;;;17.29;67.16;94445.47;5012829;28;20722;-89
2023/08/06 09:57:50;;;;;;;0.43;0.35;;;;;;;17.36;68.17;94485.84;5008668;28;20679;-89
2023/08/06 10:00:23;;;;;;;2.88;0.60;;;;;;;17.47;67.90;94476.34;5005785;28;20241;-90
2023/08/06 10:02:55;;;;;;;0.40;0.40;;;;;;;17.56;66.20;94423.56;5012298;28;20195;-89
2023/08/06 10:05:25;;;;;;;0.43;0.40;;;;;;;17.45;65.95;94415.94;5005142;28;20203;-89
2023/08/06 10:07:58;;;;;;;2.08;0.40;;;;;;;17.51;66.60;94440.97;5003736;28;20696;-89
2023/08/06 10:10:39;;;;;;;;;;;;;;;;;;;;;
2023/08/06 10:13:16;;;;;;;1.20;0.50;;;;;;;17.57;66.19;94460.78;5024893;28;20205;-89
2023/08/06 10:15:58;;;;;;;0.30;0.30;;;;;;;17.42;66.18;94430.22;5011873;28;20746;-91
2023/08/06 10:28:32;;;;;;;0.45;0.45;;;;;;;18.28;64.80;94391.78;4856980;29;20237;-90
2023/08/06 10:31:55;;;;;;;1.40;0.40;;;;;;;18.02;64.70;94371.84;4918830;29;20292;-90
2023/08/06 10:34:32;;;;;;;0.40;0.40;;;;;;;17.93;65.17;94389.75;4995903;28;20204;-90
2023/08/06 10:46:49;;;;;;;1.85;0.40;;;;;;;17.68;66.04;94446.09;4990633;28;20579;-90
2023/08/06 10:49:32;;;;;;;;;;;;;;;;;;;;;
2023/08/06 10:52:10;;;;;;;1.17;0.50;;;;;;;17.79;65.03;94403.47;4990355;28;20201;-90
2023/08/06 10:54:58;;;;;;;;;;;;;;;;;;;;;
2023/08/06 10:57:56;;;;;;;1.35;0.50;;;;;;;18.47;64.42;94381.69;4990617;28;20209;-89
2023/08/06 11:00:29;;;;;;;1.17;0.40;;;;;;;18.67;63.08;94349.72;4910843;29;20227;-88
2023/08/06 11:06:11;;;;;;;0.30;0.30;;;;;;;18.79;62.71;94328.66;4947998;28;20212;-89
2023/08/06 11:08:53;;;;;;;0.70;0.60;;;;;;;18.95;62.00;94291.13;4948443;28;20225;-89
2023/08/06 11:14:46;;;;;;;0.20;0.20;;;;;;;18.90;62.34;94317.19;4966717;28;20596;-89
2023/08/06 11:17:29;;;;;;;1.10;0.40;;;;;;;18.83;62.84;94337.53;4966591;28;20199;-89
2023/08/06 11:20:26;;;;;;;0.30;0.30;;;;;;;18.51;62.25;94312.38;4985654;28;20776;-89
2023/08/06 11:22:55;;;;;;;0.65;0.35;;;;;;;18.43;63.42;94354.59;4989931;28;20585;-89
2023/08/06 11:25:21;;;;;;;2.30;0.50;;;;;;;18.55;63.35;94362.19;4990023;28;20195;-88
2023/08/06 11:28:01;;;;;;;0.50;0.50;;;;;;;18.57;63.68;94368.72;4989625;28;20258;-88
2023/08/06 11:30:45;;;;;;;0.40;0.40;;;;;;;18.39;62.71;94345.72;4990018;28;20234;-88
2023/08/06 11:33:13;;;;;;;0.47;0.30;;;;;;;18.23;63.50;94360.50;4989991;28;20710;-88
2023/08/06 11:36:02;;;;;;;0.28;0.28;;;;;;;18.08;65.25;94429.97;4997289;28;20203;-89
2023/08/06 11:38:52;;;;;;;0.30;0.30;;;;;;;18.01;65.27;94451.03;4991639;28;20290;-87
2023/08/06 11:41:48;;;;;;;0.40;0.40;;;;;;;18.03;65.90;94458.59;4989154;28;20285;-89
2023/08/06 11:48:08;;;;;;;2.97;0.32;;;;;;;17.90;65.41;94449.38;4935257;28;20724;-89
2023/08/06 11:50:47;;;;;;;0.88;0.32;;;;;;;17.90;65.73;94463.16;4966598;28;20232;-88
2023/08/06 11:54:08;;;;;;;0.30;0.30;;;;;;;17.68;65.53;94449.47;4987287;28;20199;-88
2023/08/06 11:56:57;;;;;;;0.38;0.38;;;;;;;17.95;65.71;94467.63;4900466;29;20241;-89
2023/08/06 12:02:10;;;;;;;2.38;1.55;;;;;;;18.12;66.21;94499.53;4968201;28;20211;-88
2023/08/06 12:05:10;;;;;;;8.20;7.35;;;;;;;18.07;66.10;94493.53;4974185;28;20199;-89
2023/08/06 12:07:48;;;;;;;1.27;1.17;;;;;;;17.99;66.13;94507.00;4988333;28;20226;-89
2023/08/06 12:10:37;;;;;;;0.63;0.60;;;;;;;17.88;66.89;94516.56;4983122;28;20319;-89
2023/08/06 12:13:04;;;;;;;0.52;0.30;;;;;;;18.05;66.96;94539.88;4991948;28;20199;-88
2023/08/06 12:15:30;;;;;;;0.40;0.40;;;;;;;18.02;66.96;94517.72;4995685;28;20279;-89
2023/08/06 12:18:06;;;;;;;0.35;0.32;;;;;;;17.97;66.53;94509.06;4986082;28;20196;-88
2023/08/06 12:20:32;;;;;;;0.40;0.40;;;;;;;18.04;66.53;94501.84;4986769;28;20223;-89
2023/08/06 12:23:00;;;;;;;1.42;0.35;;;;;;;17.81;65.55;94459.47;4988759;28;20238;-90
2023/08/06 12:25:28;;;;;;;0.75;0.40;;;;;;;17.80;65.88;94483.94;4988680;28;20224;-90
2023/08/06 12:28:07;;;;;;;0.30;0.30;;;;;;;17.87;66.67;94500.16;4988732;28;20810;-86
2023/08/06 12:30:34;;;;;;;2.15;1.98;;;;;;;17.87;65.76;94478.53;4986692;28;20215;-87
2023/08/06 12:33:01;;;;;;;0.52;0.50;;;;;;;17.95;66.26;94491.88;4989734;28;20226;-87
2023/08/06 12:35:29;;;;;;;3.63;3.33;;;;;;;17.91;66.02;94479.59;5007506;28;20285;-88
2023/08/06 12:38:01;;;;;;;7.75;7.05;;;;;;;17.87;65.74;94468.13;4989523;28;20210;-87
2023/08/06 12:40:37;;;;;;;4.72;4.32;;;;;;;17.78;67.60;94548.50;4988217;28;20756;-87
2023/08/06 12:43:06;;;;;;;17.13;8.23;;;;;;;17.46;70.68;94662.13;4989657;28;20561;-86
2023/08/06 12:45:48;;;;;;;2.65;2.38;;;;;;;17.19;75.41;94771.28;4989412;28;20215;-87